sensor_id;sensor_type;location;lat;lon;timestamp;temperature;humidity
26182;DHT22;13927;51.534;11.866;2023-05-02T00:00:29;9.40;99.90
26182;DHT22;13927;51.534;11.866;2023-05-02T00:02:57;9.30;99.90
26182;DHT22;13927;51.534;11.866;2023-05-02T00:05:23;9.30;99.90
26182;DHT22;13927;51.534;11.866;2023-05-02T00:07:50;9.20;99.90
26182;DHT22;13927;51.534;11.866;2023-05-02T00:10:16;9.20;99.90
26182;DHT22;13927;51.534;11.866;2023-05-02T00:12:43;9.20;99.90
26182;DHT22;13927;51.534;11.866;2023-05-02T00:15:09;9.10;99.90
26182;DHT22;13927;51.534;11.866;2023-05-02T00:17:34;9.20;99.90
26182;DHT22;13927;51.534;11.866;2023-05-02T00:20:01;9.20;99.90
26182;DHT22;13927;51.534;11.866;2023-05-02T00:22:29;9.20;99.90
26182;DHT22;13927;51.534;11.866;2023-05-02T00:24:56;9.30;99.90
26182;DHT22;13927;51.534;11.866;2023-05-02T00:27:22;9.30;99.90
26182;DHT22;13927;51.534;11.866;2023-05-02T00:29:48;9.20;99.90
26182;DHT22;13927;51.534;11.866;2023-05-02T00:32:17;9.30;99.90
26182;DHT22;13927;51.534;11.866;2023-05-02T00:34:43;9.30;99.90
26182;DHT22;13927;51.534;11.866;2023-05-02T00:37:08;9.40;99.90
26182;DHT22;13927;51.534;11.866;2023-05-02T00:39:34;9.50;99.90
26182;DHT22;13927;51.534;11.866;2023-05-02T00:42:00;9.50;99.90
26182;DHT22;13927;51.534;11.866;2023-05-02T00:44:26;9.60;99.90
26182;DHT22;13927;51.534;11.866;2023-05-02T00:46:53;9.70;99.90
26182;DHT22;13927;51.534;11.866;2023-05-02T00:49:20;9.80;99.90
26182;DHT22;13927;51.534;11.866;2023-05-02T00:51:45;9.90;99.90
26182;DHT22;13927;51.534;11.866;2023-05-02T00:54:14;10.10;99.90
26182;DHT22;13927;51.534;11.866;2023-05-02T00:56:40;10.20;99.90
26182;DHT22;13927;51.534;11.866;2023-05-02T00:59:07;10.30;99.90
26182;DHT22;13927;51.534;11.866;2023-05-02T01:01:52;10.40;99.90
26182;DHT22;13927;51.534;11.866;2023-05-02T01:04:29;10.50;99.90
26182;DHT22;13927;51.534;11.866;2023-05-02T01:10:01;10.80;99.90
26182;DHT22;13927;51.534;11.866;2023-05-02T01:13:13;11.00;99.90
26182;DHT22;13927;51.534;11.866;2023-05-02T01:15:50;11.20;99.90
26182;DHT22;13927;51.534;11.866;2023-05-02T01:18:21;11.30;99.90
26182;DHT22;13927;51.534;11.866;2023-05-02T01:21:03;11.40;99.90
26182;DHT22;13927;51.534;11.866;2023-05-02T01:23:49;11.50;99.90
26182;DHT22;13927;51.534;11.866;2023-05-02T01:26:29;11.60;99.90
26182;DHT22;13927;51.534;11.866;2023-05-02T01:29:02;11.60;99.90
26182;DHT22;13927;51.534;11.866;2023-05-02T01:31:35;11.70;99.90
26182;DHT22;13927;51.534;11.866;2023-05-02T01:34:04;11.70;99.90
26182;DHT22;13927;51.534;11.866;2023-05-02T01:36:35;11.70;99.90
26182;DHT22;13927;51.534;11.866;2023-05-02T01:39:03;11.70;99.90
26182;DHT22;13927;51.534;11.866;2023-05-02T01:41:31;11.80;99.90
26182;DHT22;13927;51.534;11.866;2023-05-02T01:44:01;11.80;99.90
26182;DHT22;13927;51.534;11.866;2023-05-02T01:46:32;11.90;99.90
26182;DHT22;13927;51.534;11.866;2023-05-02T01:49:02;11.90;99.90
26182;DHT22;13927;51.534;11.866;2023-05-02T01:51:33;12.00;99.90
26182;DHT22;13927;51.534;11.866;2023-05-02T01:54:04;12.00;99.90
26182;DHT22;13927;51.534;11.866;2023-05-02T01:56:34;12.00;99.90
26182;DHT22;13927;51.534;11.866;2023-05-02T01:59:10;12.00;99.90
26182;DHT22;13927;51.534;11.866;2023-05-02T02:01:39;12.10;99.90
26182;DHT22;13927;51.534;11.866;2023-05-02T02:04:08;12.10;99.90
26182;DHT22;13927;51.534;11.866;2023-05-02T02:06:34;12.10;99.90
26182;DHT22;13927;51.534;11.866;2023-05-02T02:09:00;12.00;99.90
26182;DHT22;13927;51.534;11.866;2023-05-02T02:11:46;12.10;99.90
26182;DHT22;13927;51.534;11.866;2023-05-02T02:14:20;12.10;99.90
26182;DHT22;13927;51.534;11.866;2023-05-02T02:16:48;12.10;99.90
26182;DHT22;13927;51.534;11.866;2023-05-02T02:19:17;12.10;99.90
26182;DHT22;13927;51.534;11.866;2023-05-02T02:21:46;12.10;99.90
26182;DHT22;13927;51.534;11.866;2023-05-02T02:24:12;12.10;99.90
26182;DHT22;13927;51.534;11.866;2023-05-02T02:26:46;12.10;99.90
26182;DHT22;13927;51.534;11.866;2023-05-02T02:29:12;12.10;99.90
26182;DHT22;13927;51.534;11.866;2023-05-02T02:31:38;12.10;99.90
26182;DHT22;13927;51.534;11.866;2023-05-02T02:34:04;12.10;99.90
26182;DHT22;13927;51.534;11.866;2023-05-02T02:36:35;12.10;99.90
26182;DHT22;13927;51.534;11.866;2023-05-02T02:45:59;12.10;99.90
26182;DHT22;13927;51.534;11.866;2023-05-02T02:48:35;12.10;99.90
26182;DHT22;13927;51.534;11.866;2023-05-02T02:51:27;12.00;99.90
26182;DHT22;13927;51.534;11.866;2023-05-02T02:54:33;12.10;99.90
26182;DHT22;13927;51.534;11.866;2023-05-02T02:57:05;12.10;99.90
26182;DHT22;13927;51.534;11.866;2023-05-02T02:59:48;12.10;99.90
26182;DHT22;13927;51.534;11.866;2023-05-02T03:02:18;12.10;99.90
26182;DHT22;13927;51.534;11.866;2023-05-02T03:04:48;12.00;99.90
26182;DHT22;13927;51.534;11.866;2023-05-02T03:07:15;12.00;99.90
26182;DHT22;13927;51.534;11.866;2023-05-02T03:09:46;12.10;99.90
26182;DHT22;13927;51.534;11.866;2023-05-02T03:12:12;12.10;99.90
26182;DHT22;13927;51.534;11.866;2023-05-02T03:14:39;12.00;99.90
26182;DHT22;13927;51.534;11.866;2023-05-02T03:17:05;12.00;99.90
26182;DHT22;13927;51.534;11.866;2023-05-02T03:19:35;12.00;99.90
26182;DHT22;13927;51.534;11.866;2023-05-02T03:22:01;11.90;99.90
26182;DHT22;13927;51.534;11.866;2023-05-02T03:24:28;11.80;99.90
26182;DHT22;13927;51.534;11.866;2023-05-02T03:26:55;11.80;99.90
26182;DHT22;13927;51.534;11.866;2023-05-02T03:29:21;11.70;99.90
26182;DHT22;13927;51.534;11.866;2023-05-02T03:31:47;11.60;99.90
26182;DHT22;13927;51.534;11.866;2023-05-02T03:34:12;11.50;99.90
26182;DHT22;13927;51.534;11.866;2023-05-02T03:36:38;11.40;99.90
26182;DHT22;13927;51.534;11.866;2023-05-02T03:39:04;11.40;99.90
26182;DHT22;13927;51.534;11.866;2023-05-02T03:41:31;11.30;99.90
26182;DHT22;13927;51.534;11.866;2023-05-02T03:43:56;11.30;99.90
26182;DHT22;13927;51.534;11.866;2023-05-02T03:46:22;11.30;99.90
26182;DHT22;13927;51.534;11.866;2023-05-02T03:48:48;11.30;99.90
26182;DHT22;13927;51.534;11.866;2023-05-02T03:51:13;11.30;99.90
26182;DHT22;13927;51.534;11.866;2023-05-02T03:53:39;11.20;99.90
26182;DHT22;13927;51.534;11.866;2023-05-02T03:56:05;11.10;99.90
26182;DHT22;13927;51.534;11.866;2023-05-02T03:58:32;11.20;99.90
26182;DHT22;13927;51.534;11.866;2023-05-02T04:00:58;11.20;99.90
26182;DHT22;13927;51.534;11.866;2023-05-02T04:03:24;11.20;99.90
26182;DHT22;13927;51.534;11.866;2023-05-02T04:05:50;11.10;99.90
26182;DHT22;13927;51.534;11.866;2023-05-02T04:08:16;11.20;99.90
26182;DHT22;13927;51.534;11.866;2023-05-02T04:10:42;11.20;99.90
26182;DHT22;13927;51.534;11.866;2023-05-02T04:13:08;11.20;99.90
26182;DHT22;13927;51.534;11.866;2023-05-02T04:15:34;11.20;99.90
26182;DHT22;13927;51.534;11.866;2023-05-02T04:18:00;11.20;99.90
26182;DHT22;13927;51.534;11.866;2023-05-02T04:20:25;11.10;99.90
26182;DHT22;13927;51.534;11.866;2023-05-02T04:22:52;11.10;99.90
26182;DHT22;13927;51.534;11.866;2023-05-02T04:25:17;11.10;99.90
26182;DHT22;13927;51.534;11.866;2023-05-02T04:27:43;11.00;99.90
26182;DHT22;13927;51.534;11.866;2023-05-02T04:30:09;11.10;99.90
26182;DHT22;13927;51.534;11.866;2023-05-02T04:32:35;11.10;99.90
26182;DHT22;13927;51.534;11.866;2023-05-02T04:35:02;11.10;99.90
26182;DHT22;13927;51.534;11.866;2023-05-02T04:37:28;11.10;99.90
26182;DHT22;13927;51.534;11.866;2023-05-02T04:39:54;11.10;99.90
26182;DHT22;13927;51.534;11.866;2023-05-02T04:42:20;11.20;99.90
26182;DHT22;13927;51.534;11.866;2023-05-02T04:44:47;11.20;99.90
26182;DHT22;13927;51.534;11.866;2023-05-02T04:47:13;11.20;99.90
26182;DHT22;13927;51.534;11.866;2023-05-02T04:49:38;11.20;99.90
26182;DHT22;13927;51.534;11.866;2023-05-02T04:52:05;11.30;99.90
26182;DHT22;13927;51.534;11.866;2023-05-02T04:54:32;11.30;99.90
26182;DHT22;13927;51.534;11.866;2023-05-02T04:56:58;11.30;99.90
26182;DHT22;13927;51.534;11.866;2023-05-02T04:59:26;11.30;99.90
26182;DHT22;13927;51.534;11.866;2023-05-02T05:01:52;11.40;99.90
26182;DHT22;13927;51.534;11.866;2023-05-02T05:04:17;11.40;99.90
26182;DHT22;13927;51.534;11.866;2023-05-02T05:06:43;11.40;99.90
26182;DHT22;13927;51.534;11.866;2023-05-02T05:09:09;11.50;99.90
26182;DHT22;13927;51.534;11.866;2023-05-02T05:11:35;11.50;99.90
26182;DHT22;13927;51.534;11.866;2023-05-02T05:14:00;11.60;99.90
26182;DHT22;13927;51.534;11.866;2023-05-02T05:16:28;11.70;99.90
26182;DHT22;13927;51.534;11.866;2023-05-02T05:18:54;11.70;99.90
26182;DHT22;13927;51.534;11.866;2023-05-02T05:21:20;11.90;99.90
26182;DHT22;13927;51.534;11.866;2023-05-02T05:23:46;11.90;99.90
26182;DHT22;13927;51.534;11.866;2023-05-02T05:26:13;12.00;99.90
26182;DHT22;13927;51.534;11.866;2023-05-02T05:28:40;12.00;99.90
26182;DHT22;13927;51.534;11.866;2023-05-02T05:31:11;12.10;99.90
26182;DHT22;13927;51.534;11.866;2023-05-02T05:33:38;12.00;99.90
26182;DHT22;13927;51.534;11.866;2023-05-02T05:36:09;12.10;99.90
26182;DHT22;13927;51.534;11.866;2023-05-02T05:38:39;12.10;99.90
26182;DHT22;13927;51.534;11.866;2023-05-02T05:41:05;12.10;99.90
26182;DHT22;13927;51.534;11.866;2023-05-02T05:43:33;12.10;99.90
26182;DHT22;13927;51.534;11.866;2023-05-02T05:45:59;12.20;99.90
26182;DHT22;13927;51.534;11.866;2023-05-02T05:48:25;12.20;99.90
26182;DHT22;13927;51.534;11.866;2023-05-02T05:50:50;12.30;99.90
26182;DHT22;13927;51.534;11.866;2023-05-02T05:53:17;12.40;99.90
26182;DHT22;13927;51.534;11.866;2023-05-02T05:55:43;12.40;99.90
26182;DHT22;13927;51.534;11.866;2023-05-02T05:58:09;12.40;99.90
26182;DHT22;13927;51.534;11.866;2023-05-02T06:00:36;12.40;99.90
26182;DHT22;13927;51.534;11.866;2023-05-02T06:03:04;12.40;99.90
26182;DHT22;13927;51.534;11.866;2023-05-02T06:05:31;12.40;99.90
26182;DHT22;13927;51.534;11.866;2023-05-02T06:07:58;12.30;99.90
26182;DHT22;13927;51.534;11.866;2023-05-02T06:10:24;12.30;99.90
26182;DHT22;13927;51.534;11.866;2023-05-02T06:12:50;12.30;99.90
26182;DHT22;13927;51.534;11.866;2023-05-02T06:15:15;12.30;99.90
26182;DHT22;13927;51.534;11.866;2023-05-02T06:17:41;12.30;99.90
26182;DHT22;13927;51.534;11.866;2023-05-02T06:20:08;12.30;99.90
26182;DHT22;13927;51.534;11.866;2023-05-02T06:22:35;12.40;99.90
26182;DHT22;13927;51.534;11.866;2023-05-02T06:25:01;12.40;99.90
26182;DHT22;13927;51.534;11.866;2023-05-02T06:27:27;12.40;99.90
26182;DHT22;13927;51.534;11.866;2023-05-02T06:29:52;12.40;99.90
26182;DHT22;13927;51.534;11.866;2023-05-02T06:32:19;12.40;99.90
26182;DHT22;13927;51.534;11.866;2023-05-02T06:34:45;12.40;99.90
26182;DHT22;13927;51.534;11.866;2023-05-02T06:37:11;12.30;99.90
26182;DHT22;13927;51.534;11.866;2023-05-02T06:39:37;12.40;99.90
26182;DHT22;13927;51.534;11.866;2023-05-02T06:42:03;12.40;99.90
26182;DHT22;13927;51.534;11.866;2023-05-02T06:44:29;12.50;99.90
26182;DHT22;13927;51.534;11.866;2023-05-02T06:46:54;12.40;99.90
26182;DHT22;13927;51.534;11.866;2023-05-02T06:49:21;12.40;99.90
26182;DHT22;13927;51.534;11.866;2023-05-02T06:51:47;12.40;99.90
26182;DHT22;13927;51.534;11.866;2023-05-02T06:54:13;12.30;99.90
26182;DHT22;13927;51.534;11.866;2023-05-02T06:56:40;12.30;99.90
26182;DHT22;13927;51.534;11.866;2023-05-02T06:59:06;12.10;99.90
26182;DHT22;13927;51.534;11.866;2023-05-02T07:01:32;12.00;99.90
26182;DHT22;13927;51.534;11.866;2023-05-02T07:03:58;11.80;99.90
26182;DHT22;13927;51.534;11.866;2023-05-02T07:06:23;11.80;99.90
26182;DHT22;13927;51.534;11.866;2023-05-02T07:08:49;11.70;99.90
26182;DHT22;13927;51.534;11.866;2023-05-02T07:11:15;11.70;99.90
26182;DHT22;13927;51.534;11.866;2023-05-02T07:13:40;11.70;99.90
26182;DHT22;13927;51.534;11.866;2023-05-02T07:16:06;11.70;99.90
26182;DHT22;13927;51.534;11.866;2023-05-02T07:18:32;11.80;99.90
26182;DHT22;13927;51.534;11.866;2023-05-02T07:20:58;11.80;99.90
26182;DHT22;13927;51.534;11.866;2023-05-02T07:23:25;11.80;99.90
26182;DHT22;13927;51.534;11.866;2023-05-02T07:25:51;11.80;99.90
26182;DHT22;13927;51.534;11.866;2023-05-02T07:28:17;11.90;99.90
26182;DHT22;13927;51.534;11.866;2023-05-02T07:30:43;12.10;99.90
26182;DHT22;13927;51.534;11.866;2023-05-02T07:33:10;12.30;99.90
26182;DHT22;13927;51.534;11.866;2023-05-02T07:35:36;12.40;99.90
26182;DHT22;13927;51.534;11.866;2023-05-02T07:38:02;12.60;99.90
26182;DHT22;13927;51.534;11.866;2023-05-02T07:40:28;12.80;99.90
26182;DHT22;13927;51.534;11.866;2023-05-02T07:42:54;13.00;99.90
26182;DHT22;13927;51.534;11.866;2023-05-02T07:45:20;13.10;99.90
26182;DHT22;13927;51.534;11.866;2023-05-02T07:47:46;13.20;99.90
26182;DHT22;13927;51.534;11.866;2023-05-02T07:50:12;13.10;99.90
26182;DHT22;13927;51.534;11.866;2023-05-02T07:52:38;13.20;99.90
26182;DHT22;13927;51.534;11.866;2023-05-02T07:55:04;13.40;99.90
26182;DHT22;13927;51.534;11.866;2023-05-02T07:57:30;13.50;99.90
26182;DHT22;13927;51.534;11.866;2023-05-02T07:59:56;13.70;99.90
26182;DHT22;13927;51.534;11.866;2023-05-02T08:02:22;13.80;99.90
26182;DHT22;13927;51.534;11.866;2023-05-02T08:04:48;13.70;99.90
26182;DHT22;13927;51.534;11.866;2023-05-02T08:07:15;13.50;99.90
26182;DHT22;13927;51.534;11.866;2023-05-02T08:09:41;13.40;99.90
26182;DHT22;13927;51.534;11.866;2023-05-02T08:12:08;13.30;99.90
26182;DHT22;13927;51.534;11.866;2023-05-02T08:14:34;13.30;99.90
26182;DHT22;13927;51.534;11.866;2023-05-02T08:17:00;13.40;99.90
26182;DHT22;13927;51.534;11.866;2023-05-02T08:19:26;13.40;99.90
26182;DHT22;13927;51.534;11.866;2023-05-02T08:21:55;13.50;99.90
26182;DHT22;13927;51.534;11.866;2023-05-02T08:24:21;13.50;99.90
26182;DHT22;13927;51.534;11.866;2023-05-02T08:26:47;13.60;99.90
26182;DHT22;13927;51.534;11.866;2023-05-02T08:29:12;13.70;99.90
26182;DHT22;13927;51.534;11.866;2023-05-02T08:31:39;13.80;99.90
26182;DHT22;13927;51.534;11.866;2023-05-02T08:34:05;13.90;99.90
26182;DHT22;13927;51.534;11.866;2023-05-02T08:36:31;14.10;99.90
26182;DHT22;13927;51.534;11.866;2023-05-02T08:38:57;14.20;99.90
26182;DHT22;13927;51.534;11.866;2023-05-02T08:41:23;14.40;99.90
26182;DHT22;13927;51.534;11.866;2023-05-02T08:43:51;14.60;99.90
26182;DHT22;13927;51.534;11.866;2023-05-02T08:46:18;14.50;99.90
26182;DHT22;13927;51.534;11.866;2023-05-02T08:48:49;14.40;99.90
26182;DHT22;13927;51.534;11.866;2023-05-02T08:51:17;14.30;99.90
26182;DHT22;13927;51.534;11.866;2023-05-02T08:53:44;14.30;99.90
26182;DHT22;13927;51.534;11.866;2023-05-02T08:56:11;14.20;99.90
26182;DHT22;13927;51.534;11.866;2023-05-02T08:58:38;14.30;99.90
26182;DHT22;13927;51.534;11.866;2023-05-02T09:01:16;14.60;99.90
26182;DHT22;13927;51.534;11.866;2023-05-02T09:03:45;14.90;99.90
26182;DHT22;13927;51.534;11.866;2023-05-02T09:06:17;15.10;99.90
26182;DHT22;13927;51.534;11.866;2023-05-02T09:08:49;15.10;99.90
26182;DHT22;13927;51.534;11.866;2023-05-02T09:11:17;15.20;99.90
26182;DHT22;13927;51.534;11.866;2023-05-02T09:13:51;15.20;99.90
26182;DHT22;13927;51.534;11.866;2023-05-02T09:16:20;15.40;99.90
26182;DHT22;13927;51.534;11.866;2023-05-02T09:18:55;15.50;99.90
26182;DHT22;13927;51.534;11.866;2023-05-02T09:21:23;15.60;99.90
26182;DHT22;13927;51.534;11.866;2023-05-02T09:24:02;15.80;99.90
26182;DHT22;13927;51.534;11.866;2023-05-02T09:26:55;15.90;99.90
26182;DHT22;13927;51.534;11.866;2023-05-02T09:29:21;15.90;99.90
26182;DHT22;13927;51.534;11.866;2023-05-02T09:31:48;16.00;99.90
26182;DHT22;13927;51.534;11.866;2023-05-02T09:34:15;16.20;99.90
26182;DHT22;13927;51.534;11.866;2023-05-02T09:36:51;16.40;99.90
26182;DHT22;13927;51.534;11.866;2023-05-02T09:39:22;16.30;99.90
26182;DHT22;13927;51.534;11.866;2023-05-02T09:41:50;16.20;99.90
26182;DHT22;13927;51.534;11.866;2023-05-02T09:44:21;16.20;99.90
26182;DHT22;13927;51.534;11.866;2023-05-02T09:46:55;16.10;99.90
26182;DHT22;13927;51.534;11.866;2023-05-02T09:49:40;16.20;99.90
26182;DHT22;13927;51.534;11.866;2023-05-02T09:52:14;16.50;99.90
26182;DHT22;13927;51.534;11.866;2023-05-02T09:54:41;16.80;99.90
26182;DHT22;13927;51.534;11.866;2023-05-02T09:57:08;17.00;99.90
26182;DHT22;13927;51.534;11.866;2023-05-02T09:59:35;17.00;99.90
26182;DHT22;13927;51.534;11.866;2023-05-02T10:02:03;16.90;99.90
26182;DHT22;13927;51.534;11.866;2023-05-02T10:04:32;16.70;99.90
26182;DHT22;13927;51.534;11.866;2023-05-02T10:06:59;16.40;99.90
26182;DHT22;13927;51.534;11.866;2023-05-02T10:09:26;15.90;99.90
26182;DHT22;13927;51.534;11.866;2023-05-02T10:11:57;15.50;99.90
26182;DHT22;13927;51.534;11.866;2023-05-02T10:14:29;15.40;99.90
26182;DHT22;13927;51.534;11.866;2023-05-02T10:17:26;15.00;99.90
26182;DHT22;13927;51.534;11.866;2023-05-02T10:20:03;14.70;99.90
26182;DHT22;13927;51.534;11.866;2023-05-02T10:22:33;14.30;99.90
26182;DHT22;13927;51.534;11.866;2023-05-02T10:25:00;14.10;99.90
26182;DHT22;13927;51.534;11.866;2023-05-02T10:27:29;13.90;99.90
26182;DHT22;13927;51.534;11.866;2023-05-02T10:29:58;13.70;99.90
26182;DHT22;13927;51.534;11.866;2023-05-02T10:32:27;13.50;99.90
26182;DHT22;13927;51.534;11.866;2023-05-02T10:34:56;13.20;99.90
26182;DHT22;13927;51.534;11.866;2023-05-02T10:37:28;12.80;99.90
26182;DHT22;13927;51.534;11.866;2023-05-02T10:39:58;12.60;99.90
26182;DHT22;13927;51.534;11.866;2023-05-02T10:42:25;12.50;99.90
26182;DHT22;13927;51.534;11.866;2023-05-02T10:44:52;12.40;99.90
26182;DHT22;13927;51.534;11.866;2023-05-02T10:47:24;12.30;99.90
26182;DHT22;13927;51.534;11.866;2023-05-02T10:52:37;12.20;99.90
26182;DHT22;13927;51.534;11.866;2023-05-02T10:55:13;12.20;99.90
26182;DHT22;13927;51.534;11.866;2023-05-02T11:02:52;12.20;99.90
26182;DHT22;13927;51.534;11.866;2023-05-02T11:05:18;12.10;99.90
26182;DHT22;13927;51.534;11.866;2023-05-02T11:07:44;12.30;99.90
26182;DHT22;13927;51.534;11.866;2023-05-02T11:12:46;12.40;99.90
26182;DHT22;13927;51.534;11.866;2023-05-02T11:20:36;12.60;99.90
26182;DHT22;13927;51.534;11.866;2023-05-02T11:25:56;13.00;99.90
26182;DHT22;13927;51.534;11.866;2023-05-02T11:31:04;13.20;99.90
26182;DHT22;13927;51.534;11.866;2023-05-02T11:33:35;13.40;99.90
26182;DHT22;13927;51.534;11.866;2023-05-02T11:36:02;13.40;99.90
26182;DHT22;13927;51.534;11.866;2023-05-02T11:38:36;13.70;99.90
26182;DHT22;13927;51.534;11.866;2023-05-02T11:41:03;13.90;99.90
26182;DHT22;13927;51.534;11.866;2023-05-02T11:43:30;14.20;99.90
26182;DHT22;13927;51.534;11.866;2023-05-02T11:45:57;14.30;99.90
26182;DHT22;13927;51.534;11.866;2023-05-02T11:48:24;14.30;99.90
26182;DHT22;13927;51.534;11.866;2023-05-02T11:50:55;14.20;99.90
26182;DHT22;13927;51.534;11.866;2023-05-02T11:53:24;14.30;99.90
26182;DHT22;13927;51.534;11.866;2023-05-02T11:55:55;13.90;99.90
26182;DHT22;13927;51.534;11.866;2023-05-02T11:58:24;13.80;99.90
26182;DHT22;13927;51.534;11.866;2023-05-02T12:00:57;13.80;99.90
26182;DHT22;13927;51.534;11.866;2023-05-02T12:03:30;13.60;99.90
26182;DHT22;13927;51.534;11.866;2023-05-02T12:06:11;13.60;99.90
26182;DHT22;13927;51.534;11.866;2023-05-02T12:08:39;13.60;99.90
26182;DHT22;13927;51.534;11.866;2023-05-02T12:11:06;13.80;99.90
26182;DHT22;13927;51.534;11.866;2023-05-02T12:13:32;13.90;99.90
26182;DHT22;13927;51.534;11.866;2023-05-02T12:15:58;14.00;99.90
26182;DHT22;13927;51.534;11.866;2023-05-02T12:18:25;14.10;99.90
26182;DHT22;13927;51.534;11.866;2023-05-02T12:20:53;14.00;99.90
26182;DHT22;13927;51.534;11.866;2023-05-02T12:23:21;13.60;99.90
26182;DHT22;13927;51.534;11.866;2023-05-02T12:25:48;13.50;99.90
26182;DHT22;13927;51.534;11.866;2023-05-02T12:28:17;13.50;99.90
26182;DHT22;13927;51.534;11.866;2023-05-02T12:30:47;13.40;99.90
26182;DHT22;13927;51.534;11.866;2023-05-02T12:33:15;13.30;99.90
26182;DHT22;13927;51.534;11.866;2023-05-02T12:35:42;13.60;99.90
26182;DHT22;13927;51.534;11.866;2023-05-02T12:38:14;13.70;99.90
26182;DHT22;13927;51.534;11.866;2023-05-02T12:40:52;13.50;99.90
26182;DHT22;13927;51.534;11.866;2023-05-02T12:43:22;13.40;99.90
26182;DHT22;13927;51.534;11.866;2023-05-02T12:45:49;13.20;99.90
26182;DHT22;13927;51.534;11.866;2023-05-02T12:48:24;13.20;99.90
26182;DHT22;13927;51.534;11.866;2023-05-02T12:50:52;13.20;99.90
26182;DHT22;13927;51.534;11.866;2023-05-02T12:53:41;13.10;99.90
26182;DHT22;13927;51.534;11.866;2023-05-02T12:56:09;13.20;99.90
26182;DHT22;13927;51.534;11.866;2023-05-02T12:58:44;13.20;99.90
26182;DHT22;13927;51.534;11.866;2023-05-02T13:01:12;13.20;99.90
26182;DHT22;13927;51.534;11.866;2023-05-02T13:03:40;13.40;99.90
26182;DHT22;13927;51.534;11.866;2023-05-02T13:06:06;13.40;99.90
26182;DHT22;13927;51.534;11.866;2023-05-02T13:08:34;13.40;99.90
26182;DHT22;13927;51.534;11.866;2023-05-02T13:11:03;13.50;99.90
26182;DHT22;13927;51.534;11.866;2023-05-02T13:13:30;13.60;99.90
26182;DHT22;13927;51.534;11.866;2023-05-02T13:15:57;13.70;99.90
26182;DHT22;13927;51.534;11.866;2023-05-02T13:18:23;13.60;99.90
26182;DHT22;13927;51.534;11.866;2023-05-02T13:20:49;13.70;99.90
26182;DHT22;13927;51.534;11.866;2023-05-02T13:23:16;13.50;99.90
26182;DHT22;13927;51.534;11.866;2023-05-02T13:25:42;13.40;99.90
26182;DHT22;13927;51.534;11.866;2023-05-02T13:28:08;13.40;99.90
26182;DHT22;13927;51.534;11.866;2023-05-02T13:30:34;13.30;99.90
26182;DHT22;13927;51.534;11.866;2023-05-02T13:33:01;13.30;99.90
26182;DHT22;13927;51.534;11.866;2023-05-02T13:35:27;13.40;99.90
26182;DHT22;13927;51.534;11.866;2023-05-02T13:37:53;13.40;99.90
26182;DHT22;13927;51.534;11.866;2023-05-02T13:40:19;13.40;99.90
26182;DHT22;13927;51.534;11.866;2023-05-02T13:42:45;13.50;99.90
26182;DHT22;13927;51.534;11.866;2023-05-02T13:45:11;13.40;99.90
26182;DHT22;13927;51.534;11.866;2023-05-02T13:47:39;13.40;99.90
26182;DHT22;13927;51.534;11.866;2023-05-02T13:50:06;13.50;99.90
26182;DHT22;13927;51.534;11.866;2023-05-02T13:52:32;13.60;99.90
26182;DHT22;13927;51.534;11.866;2023-05-02T13:54:58;13.60;99.90
26182;DHT22;13927;51.534;11.866;2023-05-02T13:57:25;13.70;99.90
26182;DHT22;13927;51.534;11.866;2023-05-02T13:59:51;13.60;99.90
26182;DHT22;13927;51.534;11.866;2023-05-02T14:02:18;13.60;99.90
26182;DHT22;13927;51.534;11.866;2023-05-02T14:04:44;13.80;99.90
26182;DHT22;13927;51.534;11.866;2023-05-02T14:07:11;14.10;99.90
26182;DHT22;13927;51.534;11.866;2023-05-02T14:09:37;14.10;99.90
26182;DHT22;13927;51.534;11.866;2023-05-02T14:12:03;14.20;99.90
26182;DHT22;13927;51.534;11.866;2023-05-02T14:14:29;14.10;99.90
26182;DHT22;13927;51.534;11.866;2023-05-02T14:16:55;14.20;99.90
26182;DHT22;13927;51.534;11.866;2023-05-02T14:19:22;14.20;99.90
26182;DHT22;13927;51.534;11.866;2023-05-02T14:21:48;14.10;99.90
26182;DHT22;13927;51.534;11.866;2023-05-02T14:24:14;14.20;99.90
26182;DHT22;13927;51.534;11.866;2023-05-02T14:26:40;14.20;99.90
26182;DHT22;13927;51.534;11.866;2023-05-02T14:29:06;14.30;99.90
26182;DHT22;13927;51.534;11.866;2023-05-02T14:31:33;14.30;99.90
26182;DHT22;13927;51.534;11.866;2023-05-02T14:33:59;14.30;99.90
26182;DHT22;13927;51.534;11.866;2023-05-02T14:36:26;14.30;99.90
26182;DHT22;13927;51.534;11.866;2023-05-02T14:38:52;14.60;99.90
26182;DHT22;13927;51.534;11.866;2023-05-02T14:41:18;15.10;99.90
26182;DHT22;13927;51.534;11.866;2023-05-02T14:43:46;15.60;99.90
26182;DHT22;13927;51.534;11.866;2023-05-02T14:46:15;16.00;99.90
26182;DHT22;13927;51.534;11.866;2023-05-02T14:48:41;16.20;99.90
26182;DHT22;13927;51.534;11.866;2023-05-02T14:51:08;16.10;99.90
26182;DHT22;13927;51.534;11.866;2023-05-02T14:53:34;16.00;99.90
26182;DHT22;13927;51.534;11.866;2023-05-02T14:56:00;15.70;99.90
26182;DHT22;13927;51.534;11.866;2023-05-02T14:58:27;15.40;99.90
26182;DHT22;13927;51.534;11.866;2023-05-02T15:00:53;15.00;99.90
26182;DHT22;13927;51.534;11.866;2023-05-02T15:03:20;14.80;99.90
26182;DHT22;13927;51.534;11.866;2023-05-02T15:05:46;14.30;99.90
26182;DHT22;13927;51.534;11.866;2023-05-02T15:08:12;13.90;99.90
26182;DHT22;13927;51.534;11.866;2023-05-02T15:10:38;13.50;99.90
26182;DHT22;13927;51.534;11.866;2023-05-02T15:13:04;13.30;99.90
26182;DHT22;13927;51.534;11.866;2023-05-02T15:15:31;13.10;99.90
26182;DHT22;13927;51.534;11.866;2023-05-02T15:17:56;12.90;99.90
26182;DHT22;13927;51.534;11.866;2023-05-02T15:20:22;12.70;99.90
26182;DHT22;13927;51.534;11.866;2023-05-02T15:22:48;12.70;99.90
26182;DHT22;13927;51.534;11.866;2023-05-02T15:25:14;12.60;99.90
26182;DHT22;13927;51.534;11.866;2023-05-02T15:27:40;12.40;99.90
26182;DHT22;13927;51.534;11.866;2023-05-02T15:30:07;12.30;99.90
26182;DHT22;13927;51.534;11.866;2023-05-02T15:32:33;12.20;99.90
26182;DHT22;13927;51.534;11.866;2023-05-02T15:34:59;12.20;99.90
26182;DHT22;13927;51.534;11.866;2023-05-02T15:37:24;12.10;99.90
26182;DHT22;13927;51.534;11.866;2023-05-02T15:39:50;12.10;99.90
26182;DHT22;13927;51.534;11.866;2023-05-02T15:42:16;12.10;99.90
26182;DHT22;13927;51.534;11.866;2023-05-02T15:44:42;12.10;99.90
26182;DHT22;13927;51.534;11.866;2023-05-02T15:47:08;12.10;99.90
26182;DHT22;13927;51.534;11.866;2023-05-02T15:49:33;12.10;99.90
26182;DHT22;13927;51.534;11.866;2023-05-02T15:51:59;12.10;99.90
26182;DHT22;13927;51.534;11.866;2023-05-02T15:54:25;12.10;99.90